createdAt,value
2018-09-03T00:00:00.367Z,19.50
2018-09-03T00:02:31.081Z,19.50
2018-09-03T00:05:00.897Z,19.50
2018-09-03T00:07:30.349Z,19.50
2018-09-03T00:09:59.966Z,19.50
2018-09-03T00:12:29.398Z,19.50
2018-09-03T00:14:59.200Z,19.60
2018-09-03T00:17:28.665Z,19.60
2018-09-03T00:19:58.691Z,19.60
2018-09-03T00:22:28.142Z,19.60
2018-09-03T00:24:57.901Z,19.60
2018-09-03T00:27:27.374Z,19.60
2018-09-03T00:29:56.853Z,19.70
2018-09-03T00:32:31.947Z,19.70
2018-09-03T00:35:06.458Z,19.70
2018-09-03T00:37:40.989Z,19.70
2018-09-03T00:40:15.821Z,19.70
2018-09-03T00:42:50.301Z,19.70
2018-09-03T00:45:24.962Z,19.70
2018-09-03T00:47:54.456Z,19.70
2018-09-03T00:50:23.909Z,19.70
2018-09-03T00:52:53.373Z,19.60
2018-09-03T00:55:23.157Z,19.60
2018-09-03T00:57:52.610Z,19.60
2018-09-03T01:00:22.098Z,19.60
2018-09-03T01:02:51.562Z,19.50
2018-09-03T01:05:21.381Z,19.50
2018-09-03T01:07:51.464Z,19.40
2018-09-03T01:10:20.958Z,19.40
2018-09-03T01:12:50.392Z,19.40
2018-09-03T01:15:19.898Z,19.40
2018-09-03T01:17:49.339Z,19.30
2018-09-03T01:20:19.246Z,19.30
2018-09-03T01:22:50.238Z,19.30
2018-09-03T01:25:19.667Z,19.40
2018-09-03T01:27:49.126Z,19.40
2018-09-03T01:30:18.565Z,19.40
2018-09-03T01:32:48.462Z,19.30
2018-09-03T01:35:17.893Z,19.30
2018-09-03T01:37:47.357Z,19.30
2018-09-03T01:40:16.837Z,19.30
2018-09-03T01:42:46.666Z,19.30
2018-09-03T01:45:16.113Z,19.30
2018-09-03T01:47:45.726Z,19.30
2018-09-03T01:50:15.219Z,19.30
2018-09-03T01:52:45.134Z,19.30
2018-09-03T01:55:14.635Z,19.30
2018-09-03T01:57:44.110Z,19.20
2018-09-03T02:00:13.590Z,19.20
2018-09-03T02:02:43.074Z,19.20
2018-09-03T02:05:12.754Z,19.20
2018-09-03T02:07:42.213Z,19.10
2018-09-03T02:10:11.708Z,19.10
2018-09-03T02:12:41.187Z,19.10
2018-09-03T02:15:10.988Z,19.10
2018-09-03T02:17:40.490Z,19.00
2018-09-03T02:20:10.005Z,19.00
2018-09-03T02:22:39.562Z,19.00
2018-09-03T02:25:09.373Z,19.00
2018-09-03T02:27:38.857Z,19.00
2018-09-03T02:30:08.410Z,19.00
2018-09-03T02:32:37.982Z,19.00
2018-09-03T02:35:07.507Z,19.00
2018-09-03T02:37:37.434Z,19.00
2018-09-03T02:40:07.263Z,19.00
2018-09-03T02:42:36.783Z,18.90
2018-09-03T02:45:07.489Z,18.90
2018-09-03T02:47:37.348Z,18.90
2018-09-03T02:50:07.524Z,18.90
2018-09-03T02:52:37.868Z,18.80
2018-09-03T02:55:07.982Z,18.80
2018-09-03T02:57:37.739Z,18.70
2018-09-03T03:00:07.943Z,18.60
2018-09-03T03:02:37.400Z,18.60
2018-09-03T03:05:07.135Z,18.50
2018-09-03T03:07:36.663Z,18.50
2018-09-03T03:10:06.530Z,18.50
2018-09-03T03:12:36.066Z,18.50
2018-09-03T03:15:05.981Z,18.50
2018-09-03T03:17:35.430Z,18.50
2018-09-03T03:20:04.983Z,18.60
2018-09-03T03:22:34.490Z,18.60
2018-09-03T03:25:04.522Z,18.60
2018-09-03T03:27:34.312Z,18.70
2018-09-03T03:30:03.829Z,18.70
2018-09-03T03:32:33.269Z,18.80
2018-09-03T03:35:02.714Z,18.70
2018-09-03T03:37:32.202Z,18.70
2018-09-03T03:40:01.701Z,18.50
2018-09-03T03:42:31.155Z,18.50
2018-09-03T03:45:01.476Z,18.50
2018-09-03T03:47:30.950Z,18.50
2018-09-03T03:50:00.472Z,18.50
2018-09-03T03:52:30.018Z,18.50
2018-09-03T03:54:59.485Z,18.50
2018-09-03T03:57:29.019Z,18.50
2018-09-03T03:59:59.154Z,18.50
2018-09-03T04:02:28.714Z,18.50
2018-09-03T04:04:58.159Z,18.50
2018-09-03T04:07:28.070Z,18.50
2018-09-03T04:09:57.616Z,18.60
2018-09-03T04:12:27.084Z,18.60
2018-09-03T04:14:56.586Z,18.70
2018-09-03T04:17:26.686Z,18.70
2018-09-03T04:20:04.891Z,18.70
2018-09-03T04:22:34.830Z,18.70
2018-09-03T04:25:04.715Z,18.70
2018-09-03T04:27:34.182Z,18.70
2018-09-03T04:30:03.685Z,18.60
2018-09-03T04:32:33.175Z,18.60
2018-09-03T04:35:03.067Z,18.60
2018-09-03T04:37:32.560Z,18.60
2018-09-03T04:40:02.065Z,18.60
2018-09-03T04:42:31.534Z,18.60
2018-09-03T04:45:01.013Z,18.50
2018-09-03T04:47:30.548Z,18.50
2018-09-03T04:50:00.550Z,18.50
2018-09-03T04:52:30.051Z,18.50
2018-09-03T04:54:59.510Z,18.60
2018-09-03T04:57:28.983Z,18.60
2018-09-03T04:59:58.781Z,18.60
2018-09-03T05:02:28.621Z,18.50
2018-09-03T05:04:58.103Z,18.50
2018-09-03T05:07:27.581Z,18.60
2018-09-03T05:09:57.062Z,18.60
2018-09-03T05:12:26.542Z,18.70
2018-09-03T05:14:56.414Z,18.70
2018-09-03T05:17:25.885Z,18.70
2018-09-03T05:19:55.392Z,18.80
2018-09-03T05:22:24.856Z,18.80
2018-09-03T05:24:54.847Z,18.80
2018-09-03T05:27:24.414Z,18.80
2018-09-03T05:29:53.953Z,18.80
2018-09-03T05:32:23.434Z,18.80
2018-09-03T05:34:53.335Z,18.80
2018-09-03T05:37:22.845Z,18.90
2018-09-03T05:39:52.334Z,18.90
2018-09-03T05:42:21.967Z,18.90
2018-09-03T05:44:51.835Z,18.80
2018-09-03T05:47:21.310Z,18.80
2018-09-03T05:49:50.852Z,18.80
2018-09-03T05:52:20.375Z,18.80
2018-09-03T05:54:49.902Z,18.70
2018-09-03T05:57:19.365Z,18.70
2018-09-03T05:59:49.466Z,18.70
2018-09-03T06:02:18.994Z,18.80
2018-09-03T06:04:48.646Z,18.80
2018-09-03T06:07:18.145Z,18.80
2018-09-03T06:09:47.670Z,18.80
2018-09-03T06:12:17.302Z,18.80
2018-09-03T06:14:46.857Z,18.70
2018-09-03T06:17:16.341Z,18.70
2018-09-03T06:19:45.866Z,18.70
2018-09-03T06:22:15.370Z,18.80
2018-09-03T06:24:45.257Z,18.80
2018-09-03T06:27:14.770Z,18.90
2018-09-03T06:29:44.851Z,18.90
2018-09-03T06:32:14.326Z,18.90
2018-09-03T06:34:43.942Z,18.90
2018-09-03T06:37:13.412Z,18.90
2018-09-03T06:39:42.954Z,18.90
2018-09-03T06:42:12.718Z,18.90
2018-09-03T06:44:42.297Z,18.90
2018-09-03T06:47:12.534Z,18.90
2018-09-03T06:49:42.126Z,18.90
2018-09-03T06:52:11.694Z,19.00
2018-09-03T06:54:41.195Z,18.90
2018-09-03T06:57:11.147Z,19.00
2018-09-03T06:59:40.655Z,19.10
2018-09-03T07:02:10.169Z,19.10
2018-09-03T07:04:39.677Z,19.10
2018-09-03T07:07:09.442Z,19.10
2018-09-03T07:09:38.894Z,19.10
2018-09-03T07:12:08.766Z,19.10
2018-09-03T07:14:38.284Z,19.10
2018-09-03T07:17:07.749Z,19.10
2018-09-03T07:19:37.279Z,19.10
2018-09-03T07:22:07.218Z,19.10
2018-09-03T07:24:36.755Z,19.10
2018-09-03T07:27:06.587Z,19.10
2018-09-03T07:29:36.178Z,19.10
2018-09-03T07:32:05.830Z,19.10
2018-09-03T07:34:35.333Z,19.10
2018-09-03T07:37:05.114Z,19.10
2018-09-03T07:39:34.593Z,19.10
2018-09-03T07:42:04.070Z,19.10
2018-09-03T07:44:33.537Z,19.10
2018-09-03T07:47:03.542Z,19.10
2018-09-03T07:49:32.978Z,19.10
2018-09-03T07:52:02.502Z,19.10
2018-09-03T07:54:32.051Z,19.10
2018-09-03T07:57:01.538Z,19.10
2018-09-03T07:59:30.973Z,19.10
2018-09-03T08:02:00.589Z,19.20
2018-09-03T08:04:30.070Z,19.20
2018-09-03T08:06:59.797Z,19.20
2018-09-03T08:09:29.266Z,19.20
2018-09-03T08:11:58.753Z,19.30
2018-09-03T08:14:28.553Z,19.30
2018-09-03T08:16:58.006Z,19.40
2018-09-03T08:19:27.477Z,19.40
2018-09-03T08:21:57.021Z,19.50
2018-09-03T08:24:26.876Z,19.60
2018-09-03T08:26:56.413Z,19.60
2018-09-03T08:29:25.916Z,19.70
2018-09-03T08:31:55.525Z,19.80
2018-09-03T08:34:25.013Z,19.80
2018-09-03T08:36:54.808Z,19.80
2018-09-03T08:39:24.407Z,19.70
2018-09-03T08:41:53.881Z,19.70
2018-09-03T08:44:23.368Z,19.70
2018-09-03T08:46:53.137Z,19.70
2018-09-03T08:49:22.619Z,19.80
2018-09-03T08:51:52.118Z,19.80
2018-09-03T08:54:21.989Z,19.80
2018-09-03T08:56:51.867Z,19.80
2018-09-03T08:59:22.287Z,19.90
2018-09-03T09:01:51.806Z,19.90
2018-09-03T09:04:21.613Z,20.00
2018-09-03T09:06:51.151Z,20.10
2018-09-03T09:09:20.929Z,20.10
2018-09-03T09:11:50.439Z,20.20
2018-09-03T09:14:19.947Z,20.20
2018-09-03T09:16:49.491Z,20.20
2018-09-03T09:19:19.430Z,20.20
2018-09-03T09:21:48.897Z,20.20
2018-09-03T09:24:18.393Z,20.20
2018-09-03T09:26:47.935Z,20.30
2018-09-03T09:29:17.863Z,20.30
2018-09-03T09:31:47.395Z,20.30
2018-09-03T09:34:16.948Z,20.40
2018-09-03T09:36:47.414Z,20.40
2018-09-03T09:39:16.894Z,20.50
2018-09-03T09:41:46.368Z,20.50
2018-09-03T09:44:16.330Z,20.40
2018-09-03T09:46:45.838Z,20.40
2018-09-03T09:49:15.502Z,20.50
2018-09-03T09:51:45.015Z,20.50
2018-09-03T09:54:14.453Z,20.60
2018-09-03T09:56:43.915Z,20.70
2018-09-03T09:59:13.759Z,20.80
2018-09-03T10:01:43.234Z,20.90
2018-09-03T10:04:13.494Z,21.00
2018-09-03T10:06:42.935Z,21.00
2018-09-03T10:09:12.423Z,21.00
2018-09-03T10:11:41.931Z,21.10
2018-09-03T10:14:11.385Z,21.10
2018-09-03T10:16:40.873Z,21.10
2018-09-03T10:19:10.335Z,21.10
2018-09-03T10:21:39.778Z,21.10
2018-09-03T10:24:09.605Z,21.10
2018-09-03T10:26:39.086Z,21.10
2018-09-03T10:29:08.875Z,21.10
2018-09-03T10:31:38.338Z,21.20
2018-09-03T10:34:07.831Z,21.40
2018-09-03T10:36:37.406Z,21.50
2018-09-03T10:39:08.550Z,21.60
2018-09-03T10:41:38.258Z,21.70
2018-09-03T10:44:08.067Z,21.70
2018-09-03T10:46:38.029Z,21.70
2018-09-03T10:49:07.462Z,21.70
2018-09-03T10:51:37.046Z,21.70
2018-09-03T10:54:06.631Z,21.70
2018-09-03T10:56:36.439Z,21.60
2018-09-03T10:59:06.119Z,21.50
2018-09-03T11:01:35.689Z,21.50
2018-09-03T11:04:05.228Z,21.40
2018-09-03T11:06:35.050Z,21.40
2018-09-03T11:09:05.390Z,21.30
2018-09-03T11:11:34.834Z,21.30
2018-09-03T11:14:04.838Z,21.50
2018-09-03T11:16:34.483Z,21.50
2018-09-03T11:19:03.996Z,21.60
2018-09-03T11:21:33.618Z,21.60
2018-09-03T11:24:02.994Z,21.60
2018-09-03T11:26:32.470Z,21.60
2018-09-03T11:29:02.436Z,21.50
2018-09-03T11:31:31.938Z,21.50
